sensor_id;sensor_type;location;lat;lon;timestamp;pressure;altitude;pressure_sealevel;temperature;humidity
55470;BME280;41334;47.872;16.384;2023-07-20T00:02:35;98417.41;;;19.77;53.36
55470;BME280;41334;47.872;16.384;2023-07-20T00:07:37;98427.44;;;19.67;53.57
55470;BME280;41334;47.872;16.384;2023-07-20T00:12:39;98429.03;;;19.57;54.17
55470;BME280;41334;47.872;16.384;2023-07-20T00:17:41;98427.81;;;19.55;53.99
55470;BME280;41334;47.872;16.384;2023-07-20T00:22:43;98424.59;;;19.56;53.03
55470;BME280;41334;47.872;16.384;2023-07-20T00:27:45;98426.22;;;19.57;52.85
55470;BME280;41334;47.872;16.384;2023-07-20T00:32:47;98428.22;;;19.57;52.85
55470;BME280;41334;47.872;16.384;2023-07-20T00:37:50;98432.63;;;19.54;52.65
55470;BME280;41334;47.872;16.384;2023-07-20T00:42:52;98430.59;;;19.51;53.60
55470;BME280;41334;47.872;16.384;2023-07-20T00:47:58;98445.06;;;19.57;52.43
55470;BME280;41334;47.872;16.384;2023-07-20T00:53:02;98454.34;;;19.57;51.80
55470;BME280;41334;47.872;16.384;2023-07-20T00:58:07;98431.03;;;19.53;52.90
55470;BME280;41334;47.872;16.384;2023-07-20T01:03:09;98429.00;;;19.47;52.56
55470;BME280;41334;47.872;16.384;2023-07-20T01:08:16;98424.19;;;19.47;52.41
55470;BME280;41334;47.872;16.384;2023-07-20T01:13:20;98427.38;;;19.45;52.06
55470;BME280;41334;47.872;16.384;2023-07-20T01:18:23;98409.72;;;19.45;50.92
55470;BME280;41334;47.872;16.384;2023-07-20T01:23:43;98398.88;;;19.43;51.17
55470;BME280;41334;47.872;16.384;2023-07-20T01:34:15;98391.25;;;19.40;52.07
55470;BME280;41334;47.872;16.384;2023-07-20T01:39:20;98391.19;;;19.26;51.54
55470;BME280;41334;47.872;16.384;2023-07-20T01:44:23;98398.47;;;19.31;51.56
55470;BME280;41334;47.872;16.384;2023-07-20T01:49:27;98400.84;;;19.36;52.29
55470;BME280;41334;47.872;16.384;2023-07-20T01:54:59;98407.72;;;19.42;52.71
55470;BME280;41334;47.872;16.384;2023-07-20T02:00:01;98409.34;;;19.50;51.72
55470;BME280;41334;47.872;16.384;2023-07-20T02:05:23;98427.03;;;19.58;52.04
55470;BME280;41334;47.872;16.384;2023-07-20T02:10:26;98437.06;;;19.62;52.70
55470;BME280;41334;47.872;16.384;2023-07-20T02:15:28;98445.09;;;19.67;51.44
55470;BME280;41334;47.872;16.384;2023-07-20T02:20:30;98442.72;;;19.69;52.03
55470;BME280;41334;47.872;16.384;2023-07-20T02:25:32;98460.00;;;19.68;51.95
55470;BME280;41334;47.872;16.384;2023-07-20T02:30:34;98451.94;;;19.66;52.79
55470;BME280;41334;47.872;16.384;2023-07-20T02:35:40;98469.19;;;19.61;52.14
55470;BME280;41334;47.872;16.384;2023-07-20T02:40:42;98471.63;;;19.63;51.83
55470;BME280;41334;47.872;16.384;2023-07-20T02:45:45;98472.44;;;19.74;51.05
55470;BME280;41334;47.872;16.384;2023-07-20T02:50:48;98466.44;;;19.79;50.42
55470;BME280;41334;47.872;16.384;2023-07-20T02:55:50;98474.84;;;19.83;50.02
55470;BME280;41334;47.872;16.384;2023-07-20T03:00:52;98469.69;;;19.95;48.59
55470;BME280;41334;47.872;16.384;2023-07-20T03:05:54;98478.91;;;20.03;48.55
55470;BME280;41334;47.872;16.384;2023-07-20T03:10:57;98478.09;;;19.99;48.68
55470;BME280;41334;47.872;16.384;2023-07-20T03:15:59;98496.19;;;19.91;49.34
55470;BME280;41334;47.872;16.384;2023-07-20T03:21:03;98503.38;;;19.88;49.02
55470;BME280;41334;47.872;16.384;2023-07-20T03:26:04;98531.50;;;19.88;48.94
55470;BME280;41334;47.872;16.384;2023-07-20T03:31:06;98545.16;;;19.83;49.24
55470;BME280;41334;47.872;16.384;2023-07-20T03:36:12;98537.09;;;19.78;50.51
55470;BME280;41334;47.872;16.384;2023-07-20T03:41:14;98541.09;;;19.73;50.36
55470;BME280;41334;47.872;16.384;2023-07-20T03:46:18;98529.84;;;19.66;49.37
55470;BME280;41334;47.872;16.384;2023-07-20T03:51:20;98543.09;;;19.73;49.56
55470;BME280;41334;47.872;16.384;2023-07-20T03:56:22;98552.78;;;19.82;49.67
55470;BME280;41334;47.872;16.384;2023-07-20T04:01:25;98557.63;;;19.89;49.72
55470;BME280;41334;47.872;16.384;2023-07-20T04:06:26;98553.63;;;19.93;50.04
55470;BME280;41334;47.872;16.384;2023-07-20T04:11:28;98556.06;;;20.02;48.95
55470;BME280;41334;47.872;16.384;2023-07-20T04:16:30;98548.44;;;20.10;48.84
55470;BME280;41334;47.872;16.384;2023-07-20T04:21:32;98544.06;;;20.19;48.93
55470;BME280;41334;47.872;16.384;2023-07-20T04:26:34;98546.50;;;20.25;49.21
55470;BME280;41334;47.872;16.384;2023-07-20T04:31:37;98546.09;;;20.22;49.59
55470;BME280;41334;47.872;16.384;2023-07-20T04:36:39;98553.72;;;20.26;48.82
55470;BME280;41334;47.872;16.384;2023-07-20T04:41:41;98553.75;;;20.33;48.74
55470;BME280;41334;47.872;16.384;2023-07-20T04:46:43;98559.41;;;20.43;49.82
55470;BME280;41334;47.872;16.384;2023-07-20T04:51:48;98568.25;;;20.45;49.48
55470;BME280;41334;47.872;16.384;2023-07-20T04:56:51;98573.47;;;20.47;49.60
55470;BME280;41334;47.872;16.384;2023-07-20T05:01:54;98571.44;;;20.58;49.34
55470;BME280;41334;47.872;16.384;2023-07-20T05:06:56;98580.34;;;20.74;49.33
55470;BME280;41334;47.872;16.384;2023-07-20T05:11:58;98573.91;;;20.95;48.58
55470;BME280;41334;47.872;16.384;2023-07-20T05:17:01;98567.81;;;21.36;48.26
55470;BME280;41334;47.872;16.384;2023-07-20T05:22:03;98575.81;;;21.52;47.99
55470;BME280;41334;47.872;16.384;2023-07-20T05:27:07;98580.25;;;21.60;47.30
55470;BME280;41334;47.872;16.384;2023-07-20T05:32:09;98574.19;;;21.69;47.45
55470;BME280;41334;47.872;16.384;2023-07-20T05:37:11;98591.50;;;21.64;48.57
55470;BME280;41334;47.872;16.384;2023-07-20T05:42:15;98589.41;;;21.86;48.21
55470;BME280;41334;47.872;16.384;2023-07-20T05:47:17;98589.34;;;22.03;46.64
55470;BME280;41334;47.872;16.384;2023-07-20T05:52:19;98593.34;;;22.13;46.79
55470;BME280;41334;47.872;16.384;2023-07-20T05:57:21;98605.78;;;22.23;46.20
55470;BME280;41334;47.872;16.384;2023-07-20T06:02:23;98606.53;;;22.41;46.58
55470;BME280;41334;47.872;16.384;2023-07-20T06:07:25;98612.50;;;22.50;46.57
55470;BME280;41334;47.872;16.384;2023-07-20T06:12:27;98611.50;;;22.78;44.90
55470;BME280;41334;47.872;16.384;2023-07-20T06:17:29;98612.06;;;23.15;44.66
55470;BME280;41334;47.872;16.384;2023-07-20T06:22:31;98610.72;;;23.68;44.11
55470;BME280;41334;47.872;16.384;2023-07-20T06:27:33;98617.69;;;23.94;43.21
55470;BME280;41334;47.872;16.384;2023-07-20T06:32:35;98621.63;;;24.03;43.42
55470;BME280;41334;47.872;16.384;2023-07-20T06:37:37;98603.88;;;24.30;42.20
55470;BME280;41334;47.872;16.384;2023-07-20T06:42:39;98619.63;;;24.31;42.20
55470;BME280;41334;47.872;16.384;2023-07-20T06:47:44;98617.34;;;24.22;42.91
55470;BME280;41334;47.872;16.384;2023-07-20T06:52:46;98616.38;;;24.02;42.18
55470;BME280;41334;47.872;16.384;2023-07-20T06:57:50;98621.88;;;23.82;43.16
55470;BME280;41334;47.872;16.384;2023-07-20T07:02:53;98621.13;;;24.12;42.25
55470;BME280;41334;47.872;16.384;2023-07-20T07:07:55;98621.16;;;23.74;43.69
55470;BME280;41334;47.872;16.384;2023-07-20T07:12:57;98628.00;;;23.36;43.58
55470;BME280;41334;47.872;16.384;2023-07-20T07:17:58;98618.22;;;23.85;42.27
55470;BME280;41334;47.872;16.384;2023-07-20T07:23:01;98628.41;;;23.72;43.00
55470;BME280;41334;47.872;16.384;2023-07-20T07:28:03;98628.63;;;23.54;43.13
55470;BME280;41334;47.872;16.384;2023-07-20T07:33:05;98630.78;;;22.91;44.06
55470;BME280;41334;47.872;16.384;2023-07-20T07:38:07;98618.25;;;22.92;44.22
55470;BME280;41334;47.872;16.384;2023-07-20T07:43:29;98623.53;;;22.90;44.04
55470;BME280;41334;47.872;16.384;2023-07-20T07:48:31;98611.69;;;23.50;42.75
55470;BME280;41334;47.872;16.384;2023-07-20T07:53:33;98603.03;;;24.02;42.37
55470;BME280;41334;47.872;16.384;2023-07-20T07:58:36;98601.00;;;24.64;40.98
55470;BME280;41334;47.872;16.384;2023-07-20T08:03:38;98610.63;;;24.94;39.17
55470;BME280;41334;47.872;16.384;2023-07-20T08:08:42;98612.00;;;25.56;36.93
55470;BME280;41334;47.872;16.384;2023-07-20T08:13:44;98614.34;;;25.37;37.33
55470;BME280;41334;47.872;16.384;2023-07-20T08:18:46;98626.56;;;25.81;36.30
55470;BME280;41334;47.872;16.384;2023-07-20T08:23:48;98624.72;;;26.11;35.53
55470;BME280;41334;47.872;16.384;2023-07-20T08:28:50;98622.03;;;26.24;35.18
55470;BME280;41334;47.872;16.384;2023-07-20T08:33:52;98635.03;;;26.61;34.93
55470;BME280;41334;47.872;16.384;2023-07-20T08:38:54;98631.53;;;27.22;33.05
55470;BME280;41334;47.872;16.384;2023-07-20T08:43:56;98626.72;;;27.19;33.30
55470;BME280;41334;47.872;16.384;2023-07-20T08:49:00;98626.81;;;27.48;31.82
55470;BME280;41334;47.872;16.384;2023-07-20T08:54:06;98626.81;;;27.64;31.36
55470;BME280;41334;47.872;16.384;2023-07-20T08:59:08;98625.13;;;27.34;29.82
55470;BME280;41334;47.872;16.384;2023-07-20T09:04:10;98635.72;;;27.01;30.25
55470;BME280;41334;47.872;16.384;2023-07-20T09:09:13;98646.75;;;27.32;31.01
55470;BME280;41334;47.872;16.384;2023-07-20T09:14:15;98634.34;;;27.71;30.44
55470;BME280;41334;47.872;16.384;2023-07-20T09:19:17;98642.69;;;28.07;30.16
55470;BME280;41334;47.872;16.384;2023-07-20T09:24:19;98641.50;;;28.21;28.82
55470;BME280;41334;47.872;16.384;2023-07-20T09:29:22;98649.63;;;27.77;29.42
55470;BME280;41334;47.872;16.384;2023-07-20T09:34:23;98651.13;;;26.67;29.54
55470;BME280;41334;47.872;16.384;2023-07-20T09:39:28;98652.50;;;27.61;28.95
55470;BME280;41334;47.872;16.384;2023-07-20T09:44:30;98649.25;;;27.62;27.59
55470;BME280;41334;47.872;16.384;2023-07-20T09:49:41;98657.09;;;26.89;29.16
55470;BME280;41334;47.872;16.384;2023-07-20T09:54:47;98666.97;;;26.49;29.80
55470;BME280;41334;47.872;16.384;2023-07-20T09:59:49;98664.31;;;28.21;27.04
55470;BME280;41334;47.872;16.384;2023-07-20T10:04:53;98653.56;;;27.50;27.18
55470;BME280;41334;47.872;16.384;2023-07-20T10:09:56;98672.66;;;27.83;27.52
55470;BME280;41334;47.872;16.384;2023-07-20T10:15:11;98654.47;;;27.64;26.70
55470;BME280;41334;47.872;16.384;2023-07-20T10:20:13;98652.91;;;28.21;26.48
55470;BME280;41334;47.872;16.384;2023-07-20T10:25:17;98668.88;;;27.24;27.38
55470;BME280;41334;47.872;16.384;2023-07-20T10:30:20;98656.59;;;27.43;28.36
55470;BME280;41334;47.872;16.384;2023-07-20T10:35:22;98661.75;;;27.48;28.25
55470;BME280;41334;47.872;16.384;2023-07-20T10:45:39;98674.94;;;27.10;28.27
55470;BME280;41334;47.872;16.384;2023-07-20T10:50:42;98664.00;;;27.25;28.68
55470;BME280;41334;47.872;16.384;2023-07-20T10:55:46;98657.53;;;27.57;28.58
55470;BME280;41334;47.872;16.384;2023-07-20T11:01:00;98640.72;;;28.20;27.58
55470;BME280;41334;47.872;16.384;2023-07-20T11:11:27;98629.19;;;27.66;28.71
55470;BME280;41334;47.872;16.384;2023-07-20T11:16:48;98626.09;;;27.60;29.28
55470;BME280;41334;47.872;16.384;2023-07-20T11:21:52;98612.09;;;27.66;29.20
55470;BME280;41334;47.872;16.384;2023-07-20T11:27:04;98601.06;;;28.26;28.43
55470;BME280;41334;47.872;16.384;2023-07-20T11:32:07;98586.59;;;28.33;28.06
55470;BME280;41334;47.872;16.384;2023-07-20T11:37:09;98602.50;;;28.85;27.07
55470;BME280;41334;47.872;16.384;2023-07-20T11:42:12;98613.97;;;28.56;27.30
55470;BME280;41334;47.872;16.384;2023-07-20T11:47:50;98595.13;;;28.46;26.90
55470;BME280;41334;47.872;16.384;2023-07-20T11:52:52;98598.97;;;28.14;26.20
55470;BME280;41334;47.872;16.384;2023-07-20T11:58:07;98607.19;;;27.05;27.51
55470;BME280;41334;47.872;16.384;2023-07-20T12:03:09;98596.06;;;27.72;26.43
55470;BME280;41334;47.872;16.384;2023-07-20T12:08:12;98605.56;;;27.36;27.46
55470;BME280;41334;47.872;16.384;2023-07-20T12:13:14;98581.28;;;27.77;26.63
55470;BME280;41334;47.872;16.384;2023-07-20T12:18:15;98580.22;;;28.00;27.52
55470;BME280;41334;47.872;16.384;2023-07-20T12:23:17;98579.66;;;28.72;25.53
55470;BME280;41334;47.872;16.384;2023-07-20T12:28:19;98567.66;;;29.03;26.22
55470;BME280;41334;47.872;16.384;2023-07-20T12:33:22;98571.41;;;29.13;25.58
55470;BME280;41334;47.872;16.384;2023-07-20T12:38:24;98554.78;;;28.73;25.63
55470;BME280;41334;47.872;16.384;2023-07-20T12:43:28;98571.34;;;28.91;26.29
55470;BME280;41334;47.872;16.384;2023-07-20T12:48:30;98558.69;;;28.79;26.03
55470;BME280;41334;47.872;16.384;2023-07-20T12:53:32;98572.00;;;28.44;26.18
55470;BME280;41334;47.872;16.384;2023-07-20T12:58:34;98566.19;;;28.35;25.83
55470;BME280;41334;47.872;16.384;2023-07-20T13:03:36;98571.56;;;28.84;25.67
55470;BME280;41334;47.872;16.384;2023-07-20T13:08:58;98576.94;;;28.01;26.34
55470;BME280;41334;47.872;16.384;2023-07-20T13:14:00;98577.59;;;28.47;25.91
55470;BME280;41334;47.872;16.384;2023-07-20T13:19:04;98587.13;;;28.15;26.18
55470;BME280;41334;47.872;16.384;2023-07-20T13:24:06;98588.47;;;28.11;26.94
55470;BME280;41334;47.872;16.384;2023-07-20T13:29:08;98581.44;;;28.15;25.80
55470;BME280;41334;47.872;16.384;2023-07-20T13:34:10;98582.28;;;27.99;26.66
55470;BME280;41334;47.872;16.384;2023-07-20T13:39:12;98588.97;;;27.93;27.04
55470;BME280;41334;47.872;16.384;2023-07-20T13:44:14;98591.75;;;27.67;26.69
55470;BME280;41334;47.872;16.384;2023-07-20T13:49:18;98586.09;;;27.18;26.83
55470;BME280;41334;47.872;16.384;2023-07-20T13:54:24;98581.94;;;26.90;27.31
55470;BME280;41334;47.872;16.384;2023-07-20T13:59:28;98588.66;;;27.29;27.72
55470;BME280;41334;47.872;16.384;2023-07-20T14:04:30;98570.13;;;27.08;27.55
55470;BME280;41334;47.872;16.384;2023-07-20T14:09:32;98575.19;;;26.84;27.93
55470;BME280;41334;47.872;16.384;2023-07-20T14:14:34;98579.63;;;27.02;27.07
55470;BME280;41334;47.872;16.384;2023-07-20T14:19:37;98570.75;;;27.00;27.97
55470;BME280;41334;47.872;16.384;2023-07-20T14:24:40;98569.94;;;26.83;27.72
55470;BME280;41334;47.872;16.384;2023-07-20T14:29:42;98570.63;;;26.70;28.41
55470;BME280;41334;47.872;16.384;2023-07-20T14:34:44;98581.66;;;26.85;27.85
55470;BME280;41334;47.872;16.384;2023-07-20T14:39:48;98568.78;;;27.13;27.90
55470;BME280;41334;47.872;16.384;2023-07-20T14:44:50;98559.19;;;26.74;28.56
55470;BME280;41334;47.872;16.384;2023-07-20T14:49:53;98561.84;;;26.97;28.45
55470;BME280;41334;47.872;16.384;2023-07-20T14:54:55;98547.19;;;27.15;27.95
55470;BME280;41334;47.872;16.384;2023-07-20T14:59:56;98556.00;;;27.50;27.96
55470;BME280;41334;47.872;16.384;2023-07-20T15:04:58;98565.41;;;27.18;27.75
55470;BME280;41334;47.872;16.384;2023-07-20T15:10:03;98547.75;;;27.39;27.18
55470;BME280;41334;47.872;16.384;2023-07-20T15:15:10;98545.22;;;27.12;26.95
55470;BME280;41334;47.872;16.384;2023-07-20T15:20:12;98536.44;;;26.90;27.30
55470;BME280;41334;47.872;16.384;2023-07-20T15:25:15;98538.22;;;26.52;27.31
55470;BME280;41334;47.872;16.384;2023-07-20T15:30:17;98535.97;;;26.76;27.57
55470;BME280;41334;47.872;16.384;2023-07-20T15:35:23;98540.25;;;26.51;28.51
55470;BME280;41334;47.872;16.384;2023-07-20T15:40:25;98539.00;;;26.68;27.23
55470;BME280;41334;47.872;16.384;2023-07-20T15:45:28;98536.06;;;26.39;27.79
55470;BME280;41334;47.872;16.384;2023-07-20T15:50:31;98533.50;;;26.78;27.59
55470;BME280;41334;47.872;16.384;2023-07-20T15:55:33;98526.84;;;26.68;27.62
55470;BME280;41334;47.872;16.384;2023-07-20T16:00:36;98530.81;;;26.70;27.13
55470;BME280;41334;47.872;16.384;2023-07-20T16:05:39;98529.69;;;26.52;28.29
55470;BME280;41334;47.872;16.384;2023-07-20T16:10:41;98529.59;;;26.71;27.67
55470;BME280;41334;47.872;16.384;2023-07-20T16:15:43;98526.22;;;26.60;28.09
55470;BME280;41334;47.872;16.384;2023-07-20T16:20:48;98520.34;;;26.84;28.18
55470;BME280;41334;47.872;16.384;2023-07-20T16:25:50;98522.84;;;26.82;27.93
55470;BME280;41334;47.872;16.384;2023-07-20T16:30:53;98522.59;;;26.92;27.82
55470;BME280;41334;47.872;16.384;2023-07-20T16:35:55;98521.75;;;27.08;27.34
55470;BME280;41334;47.872;16.384;2023-07-20T16:40:59;98525.22;;;27.16;26.94
55470;BME280;41334;47.872;16.384;2023-07-20T16:46:01;98526.16;;;27.42;26.67
55470;BME280;41334;47.872;16.384;2023-07-20T16:51:24;98526.19;;;27.84;26.17
55470;BME280;41334;47.872;16.384;2023-07-20T16:56:26;98518.63;;;27.19;26.78
55470;BME280;41334;47.872;16.384;2023-07-20T17:01:29;98528.44;;;26.69;27.32
55470;BME280;41334;47.872;16.384;2023-07-20T17:06:34;98518.84;;;26.95;27.37
55470;BME280;41334;47.872;16.384;2023-07-20T17:11:36;98524.00;;;27.01;26.70
55470;BME280;41334;47.872;16.384;2023-07-20T17:16:38;98526.03;;;26.84;27.34
55470;BME280;41334;47.872;16.384;2023-07-20T17:21:40;98523.41;;;26.77;26.81
55470;BME280;41334;47.872;16.384;2023-07-20T17:26:42;98528.25;;;27.25;26.50
55470;BME280;41334;47.872;16.384;2023-07-20T17:31:45;98530.16;;;28.28;25.10
55470;BME280;41334;47.872;16.384;2023-07-20T17:36:47;98530.78;;;29.09;24.42
55470;BME280;41334;47.872;16.384;2023-07-20T17:41:52;98524.59;;;28.37;24.49
55470;BME280;41334;47.872;16.384;2023-07-20T17:46:55;98518.88;;;27.83;25.24
55470;BME280;41334;47.872;16.384;2023-07-20T17:52:00;98528.09;;;26.67;27.21
55470;BME280;41334;47.872;16.384;2023-07-20T17:57:02;98528.38;;;26.20;27.48
55470;BME280;41334;47.872;16.384;2023-07-20T18:02:07;98533.78;;;25.94;28.35
55470;BME280;41334;47.872;16.384;2023-07-20T18:07:09;98532.94;;;25.78;28.53
55470;BME280;41334;47.872;16.384;2023-07-20T18:12:11;98529.03;;;25.72;28.99
55470;BME280;41334;47.872;16.384;2023-07-20T18:17:13;98525.00;;;25.49;29.24
55470;BME280;41334;47.872;16.384;2023-07-20T18:22:15;98524.09;;;25.32;29.74
55470;BME280;41334;47.872;16.384;2023-07-20T18:27:17;98526.19;;;25.05;30.61
55470;BME280;41334;47.872;16.384;2023-07-20T18:32:19;98521.41;;;24.78;31.07
55470;BME280;41334;47.872;16.384;2023-07-20T18:37:22;98533.88;;;24.57;31.38
55470;BME280;41334;47.872;16.384;2023-07-20T18:42:26;98544.38;;;24.33;31.91
55470;BME280;41334;47.872;16.384;2023-07-20T18:47:28;98536.19;;;24.12;32.46
55470;BME280;41334;47.872;16.384;2023-07-20T18:52:29;98537.28;;;23.91;33.30
55470;BME280;41334;47.872;16.384;2023-07-20T18:57:32;98538.25;;;23.77;33.87
55470;BME280;41334;47.872;16.384;2023-07-20T19:02:34;98551.75;;;23.63;34.82
55470;BME280;41334;47.872;16.384;2023-07-20T19:07:36;98554.72;;;23.52;35.08
55470;BME280;41334;47.872;16.384;2023-07-20T19:12:38;98562.50;;;23.41;35.48
55470;BME280;41334;47.872;16.384;2023-07-20T19:17:40;98563.03;;;23.28;35.61
55470;BME280;41334;47.872;16.384;2023-07-20T19:22:43;98571.25;;;23.16;36.32
55470;BME280;41334;47.872;16.384;2023-07-20T19:27:44;98576.22;;;22.97;36.61
55470;BME280;41334;47.872;16.384;2023-07-20T19:32:46;98582.81;;;22.83;36.87
55470;BME280;41334;47.872;16.384;2023-07-20T19:37:48;98588.56;;;22.69;36.85
55470;BME280;41334;47.872;16.384;2023-07-20T19:42:50;98600.31;;;22.61;37.17
55470;BME280;41334;47.872;16.384;2023-07-20T19:47:52;98589.94;;;22.50;37.45
55470;BME280;41334;47.872;16.384;2023-07-20T19:52:54;98593.63;;;22.33;37.90
55470;BME280;41334;47.872;16.384;2023-07-20T19:57:59;98611.03;;;22.17;38.17
55470;BME280;41334;47.872;16.384;2023-07-20T20:03:04;98604.28;;;22.00;38.39
55470;BME280;41334;47.872;16.384;2023-07-20T20:08:09;98612.41;;;21.81;39.32
55470;BME280;41334;47.872;16.384;2023-07-20T20:13:11;98612.84;;;21.68;39.41
55470;BME280;41334;47.872;16.384;2023-07-20T20:18:16;98607.22;;;21.54;39.53
55470;BME280;41334;47.872;16.384;2023-07-20T20:23:19;98602.44;;;21.40;39.60
55470;BME280;41334;47.872;16.384;2023-07-20T20:28:22;98599.63;;;21.26;40.08
55470;BME280;41334;47.872;16.384;2023-07-20T20:33:26;98606.50;;;21.14;40.59
55470;BME280;41334;47.872;16.384;2023-07-20T20:38:28;98597.25;;;21.03;41.70
55470;BME280;41334;47.872;16.384;2023-07-20T20:43:30;98597.25;;;20.92;41.47
55470;BME280;41334;47.872;16.384;2023-07-20T20:48:45;98594.41;;;20.82;42.63
55470;BME280;41334;47.872;16.384;2023-07-20T20:53:47;98598.44;;;20.70;42.32
55470;BME280;41334;47.872;16.384;2023-07-20T20:58:49;98591.97;;;20.62;42.84
55470;BME280;41334;47.872;16.384;2023-07-20T21:03:52;98608.47;;;20.49;43.07
55470;BME280;41334;47.872;16.384;2023-07-20T21:08:54;98611.22;;;20.32;44.33
55470;BME280;41334;47.872;16.384;2023-07-20T21:13:56;98610.00;;;20.22;44.16
55470;BME280;41334;47.872;16.384;2023-07-20T21:18:58;98606.78;;;20.20;44.06
55470;BME280;41334;47.872;16.384;2023-07-20T21:24:01;98624.03;;;20.15;44.77
55470;BME280;41334;47.872;16.384;2023-07-20T21:29:03;98619.16;;;20.01;44.73
55470;BME280;41334;47.872;16.384;2023-07-20T21:34:06;98625.09;;;19.89;45.59
55470;BME280;41334;47.872;16.384;2023-07-20T21:39:08;98635.53;;;19.81;45.82
55470;BME280;41334;47.872;16.384;2023-07-20T21:44:10;98635.44;;;19.63;45.82
55470;BME280;41334;47.872;16.384;2023-07-20T21:49:13;98636.19;;;19.57;46.09
55470;BME280;41334;47.872;16.384;2023-07-20T21:54:15;98628.94;;;19.49;46.23
55470;BME280;41334;47.872;16.384;2023-07-20T21:59:17;98631.69;;;19.45;47.47
55470;BME280;41334;47.872;16.384;2023-07-20T22:04:19;98630.88;;;19.41;47.18
55470;BME280;41334;47.872;16.384;2023-07-20T22:09:21;98628.00;;;19.30;47.47
55470;BME280;41334;47.872;16.384;2023-07-20T22:14:23;98623.91;;;19.24;47.64
55470;BME280;41334;47.872;16.384;2023-07-20T22:19:25;98630.72;;;19.23;48.11
55470;BME280;41334;47.872;16.384;2023-07-20T22:24:27;98625.44;;;19.14;50.01
55470;BME280;41334;47.872;16.384;2023-07-20T22:29:29;98627.78;;;19.05;50.25
55470;BME280;41334;47.872;16.384;2023-07-20T22:34:36;98629.75;;;19.01;49.59
55470;BME280;41334;47.872;16.384;2023-07-20T22:39:37;98633.78;;;19.00;51.88
55470;BME280;41334;47.872;16.384;2023-07-20T22:44:39;98628.25;;;19.11;54.50
55470;BME280;41334;47.872;16.384;2023-07-20T22:49:41;98644.28;;;19.14;54.19
55470;BME280;41334;47.872;16.384;2023-07-20T22:54:43;98633.09;;;19.17;52.47
55470;BME280;41334;47.872;16.384;2023-07-20T22:59:45;98639.47;;;19.14;52.50
55470;BME280;41334;47.872;16.384;2023-07-20T23:04:47;98634.63;;;19.08;52.45
55470;BME280;41334;47.872;16.384;2023-07-20T23:09:49;98636.22;;;19.05;52.55
55470;BME280;41334;47.872;16.384;2023-07-20T23:14:52;98638.59;;;19.00;52.94
55470;BME280;41334;47.872;16.384;2023-07-20T23:19:54;98634.97;;;18.99;54.51
55470;BME280;41334;47.872;16.384;2023-07-20T23:24:55;98638.16;;;18.98;52.97
55470;BME280;41334;47.872;16.384;2023-07-20T23:29:57;98633.34;;;18.98;52.94
55470;BME280;41334;47.872;16.384;2023-07-20T23:34:59;98628.47;;;18.91;53.84
55470;BME280;41334;47.872;16.384;2023-07-20T23:40:02;98641.50;;;18.70;55.25
55470;BME280;41334;47.872;16.384;2023-07-20T23:45:16;98644.56;;;18.54;53.95
55470;BME280;41334;47.872;16.384;2023-07-20T23:50:18;98624.88;;;18.47;53.96
55470;BME280;41334;47.872;16.384;2023-07-20T23:55:20;98621.97;;;18.43;54.10
